createdAt,value
2022-10-18T00:00:27.263Z,-4.66
2022-10-18T00:03:30.378Z,-4.65
2022-10-18T00:06:34.483Z,-4.63
2022-10-18T00:09:37.811Z,-4.55
2022-10-18T00:12:42.145Z,-4.51
2022-10-18T00:15:54.042Z,-4.45
2022-10-18T00:18:57.587Z,-4.39
2022-10-18T00:22:01.292Z,-4.29
2022-10-18T00:25:06.560Z,-3.98
2022-10-18T00:28:10.706Z,-3.72
2022-10-18T00:31:26.191Z,-3.47
2022-10-18T00:34:30.460Z,-2.94
2022-10-18T00:37:34.239Z,-2.32
2022-10-18T00:40:37.310Z,-1.96
2022-10-18T00:43:54.755Z,-1.48
2022-10-18T00:47:04.038Z,-1.12
2022-10-18T00:50:09.729Z,-0.52
2022-10-18T00:53:18.638Z,0.09
2022-10-18T00:56:21.979Z,0.39
2022-10-18T00:59:26.724Z,0.53
2022-10-18T01:02:30.757Z,0.34
2022-10-18T01:05:39.487Z,0.81
2022-10-18T01:09:11.476Z,0.74
2022-10-18T01:12:25.447Z,0.92
2022-10-18T01:16:06.008Z,0.74
2022-10-18T01:23:22.005Z,1.41
2022-10-18T01:26:31.437Z,1.88
2022-10-18T01:29:59.714Z,2.47
2022-10-18T01:33:20.972Z,2.71
2022-10-18T01:36:34.789Z,3.41
2022-10-18T01:39:41.124Z,3.38
2022-10-18T01:42:47.124Z,3.62
2022-10-18T01:45:51.973Z,3.80
2022-10-18T01:48:57.128Z,4.03
2022-10-18T01:52:01.230Z,3.99
2022-10-18T01:55:05.817Z,3.85
2022-10-18T01:58:27.909Z,4.50
2022-10-18T02:01:53.411Z,5.27
2022-10-18T02:05:29.629Z,4.88
2022-10-18T02:08:34.838Z,4.92
2022-10-18T02:11:41.470Z,5.20
2022-10-18T02:14:46.218Z,5.66
2022-10-18T02:17:51.383Z,5.97
2022-10-18T02:20:55.783Z,6.30
2022-10-18T02:24:01.881Z,7.26
2022-10-18T02:27:05.660Z,8.02
2022-10-18T02:30:10.065Z,8.34
2022-10-18T02:33:20.621Z,9.45
2022-10-18T02:36:28.624Z,9.54
2022-10-18T02:39:35.557Z,9.47
2022-10-18T02:42:44.798Z,10.08
2022-10-18T02:45:47.835Z,9.98
2022-10-18T02:48:50.822Z,9.31
2022-10-18T02:51:54.177Z,9.19
2022-10-18T02:54:57.727Z,9.23
2022-10-18T02:58:01.358Z,9.23
2022-10-18T03:01:04.399Z,9.47
2022-10-18T03:04:08.529Z,8.46
2022-10-18T03:07:11.632Z,7.49
2022-10-18T03:10:15.170Z,7.55
2022-10-18T03:13:18.266Z,7.52
2022-10-18T03:16:22.394Z,7.80
2022-10-18T03:19:26.178Z,8.48
2022-10-18T03:22:30.538Z,9.06
2022-10-18T03:25:35.176Z,9.54
2022-10-18T03:28:38.252Z,8.60
2022-10-18T03:31:41.229Z,8.25
2022-10-18T03:34:44.907Z,8.85
2022-10-18T03:37:47.950Z,10.19
2022-10-18T03:40:51.745Z,10.73
2022-10-18T03:43:55.351Z,9.24
2022-10-18T03:46:59.493Z,8.26
2022-10-18T03:50:02.515Z,7.57
2022-10-18T03:53:06.500Z,6.98
2022-10-18T03:56:10.765Z,7.06
2022-10-18T03:59:14.604Z,6.97
2022-10-18T04:02:18.474Z,7.10
2022-10-18T04:05:24.487Z,7.41
2022-10-18T04:08:28.104Z,7.51
2022-10-18T04:11:31.288Z,7.59
2022-10-18T04:14:35.364Z,7.38
2022-10-18T04:17:40.108Z,7.15
2022-10-18T04:20:43.025Z,7.04
2022-10-18T04:23:51.874Z,7.11
2022-10-18T04:26:55.476Z,7.07
2022-10-18T04:29:58.835Z,7.36
2022-10-18T04:33:01.900Z,7.28
2022-10-18T04:36:05.839Z,7.34
2022-10-18T04:39:08.736Z,7.49
2022-10-18T04:42:12.720Z,7.57
2022-10-18T04:45:15.755Z,7.22
2022-10-18T04:48:19.741Z,7.24
2022-10-18T04:51:23.757Z,7.42
2022-10-18T04:54:28.581Z,7.60
2022-10-18T04:57:32.576Z,7.92
2022-10-18T05:00:39.867Z,8.27
2022-10-18T05:03:43.150Z,8.42
2022-10-18T05:06:46.472Z,8.56
2022-10-18T05:09:49.616Z,8.72
2022-10-18T05:12:52.656Z,8.89
2022-10-18T05:15:56.006Z,9.12
2022-10-18T05:18:59.690Z,9.27
2022-10-18T05:22:02.832Z,9.41
2022-10-18T05:25:07.618Z,9.44
2022-10-18T05:28:27.168Z,9.73
2022-10-18T05:31:34.515Z,10.18
2022-10-18T05:34:38.108Z,10.79
2022-10-18T05:37:41.717Z,10.77
2022-10-18T05:40:45.449Z,10.73
2022-10-18T05:43:49.191Z,10.92
2022-10-18T05:46:52.956Z,10.90
2022-10-18T05:49:56.405Z,10.82
2022-10-18T05:53:07.003Z,10.52
2022-10-18T05:56:22.006Z,10.66
2022-10-18T05:59:26.191Z,10.72
2022-10-18T06:02:29.056Z,10.94
2022-10-18T06:05:32.147Z,11.39
2022-10-18T06:08:37.261Z,11.47
2022-10-18T06:11:40.903Z,11.00
2022-10-18T06:14:44.742Z,10.95
2022-10-18T06:17:48.443Z,10.89
2022-10-18T06:21:00.140Z,11.52
2022-10-18T06:24:03.821Z,11.82
2022-10-18T06:27:09.992Z,12.82
2022-10-18T06:30:13.824Z,12.94
2022-10-18T06:33:17.004Z,12.92
2022-10-18T06:36:24.659Z,12.83
2022-10-18T06:39:28.119Z,12.81
2022-10-18T06:42:32.336Z,12.89
2022-10-18T06:45:36.330Z,12.91
2022-10-18T06:48:41.069Z,13.48
2022-10-18T06:51:45.548Z,13.57
2022-10-18T06:54:48.508Z,15.53
2022-10-18T06:57:53.920Z,17.11
2022-10-18T07:00:56.990Z,18.83
2022-10-18T07:04:00.715Z,17.74
2022-10-18T07:07:03.759Z,15.20
2022-10-18T07:10:11.200Z,14.13
2022-10-18T07:13:33.081Z,14.13
2022-10-18T07:16:36.657Z,14.37
2022-10-18T07:19:40.020Z,14.39
2022-10-18T07:22:44.209Z,14.98
2022-10-18T07:25:47.905Z,14.55
2022-10-18T07:28:55.822Z,14.96
2022-10-18T07:31:59.458Z,16.29
2022-10-18T07:35:03.710Z,15.20
2022-10-18T07:38:07.421Z,13.87
2022-10-18T07:41:12.735Z,12.92
2022-10-18T07:44:16.558Z,12.45
2022-10-18T07:47:19.634Z,11.63
2022-10-18T07:50:23.082Z,11.01
2022-10-18T07:53:26.817Z,10.64
2022-10-18T07:56:30.776Z,10.37
2022-10-18T07:59:34.794Z,10.02
2022-10-18T08:02:38.604Z,9.69
2022-10-18T08:05:41.658Z,9.68
2022-10-18T08:08:45.311Z,9.68
2022-10-18T08:11:48.593Z,9.60
2022-10-18T08:14:51.643Z,9.64
2022-10-18T08:17:55.026Z,9.64
2022-10-18T08:20:59.863Z,9.72
2022-10-18T08:24:02.963Z,9.73
2022-10-18T08:27:06.869Z,9.66
2022-10-18T08:30:10.637Z,9.56
2022-10-18T08:33:14.439Z,9.58
2022-10-18T08:36:18.324Z,9.46
2022-10-18T08:39:21.428Z,9.23
2022-10-18T08:42:39.705Z,9.12
2022-10-18T08:45:44.749Z,9.04
2022-10-18T08:48:53.045Z,9.05
2022-10-18T08:51:57.482Z,8.96
2022-10-18T08:55:12.548Z,8.69
2022-10-18T08:58:21.604Z,8.49
2022-10-18T09:01:58.444Z,8.35
2022-10-18T09:05:06.755Z,7.86
2022-10-18T09:08:19.692Z,7.71
2022-10-18T09:11:47.872Z,7.63
2022-10-18T09:15:22.136Z,7.49
2022-10-18T09:18:32.091Z,7.26
2022-10-18T09:21:45.175Z,7.05
2022-10-18T09:25:13.468Z,6.86
2022-10-18T09:28:55.354Z,6.62
2022-10-18T09:32:09.014Z,6.40
2022-10-18T09:35:22.927Z,6.24
2022-10-18T09:38:31.939Z,6.04
2022-10-18T09:41:55.894Z,5.91
2022-10-18T09:45:15.302Z,5.76
2022-10-18T09:48:45.613Z,5.62
2022-10-18T09:51:52.172Z,5.46
2022-10-18T09:55:02.116Z,5.33
2022-10-18T09:58:08.673Z,5.24
2022-10-18T10:01:16.042Z,5.14
2022-10-18T10:04:19.930Z,5.13
2022-10-18T10:07:32.573Z,5.08
2022-10-18T10:10:41.195Z,5.12
2022-10-18T10:13:45.528Z,5.04
2022-10-18T10:16:53.173Z,4.98
2022-10-18T10:20:24.132Z,4.99
2022-10-18T10:23:33.074Z,4.96
2022-10-18T10:26:39.892Z,4.93
2022-10-18T10:29:46.980Z,4.87
2022-10-18T10:32:52.717Z,4.84
2022-10-18T10:36:00.926Z,4.88
2022-10-18T10:39:12.052Z,4.81
2022-10-18T10:42:16.781Z,4.68
2022-10-18T10:45:22.873Z,4.66
2022-10-18T10:48:31.119Z,4.58
2022-10-18T10:51:41.027Z,4.57
2022-10-18T10:54:51.357Z,4.48
2022-10-18T10:57:58.399Z,4.41
2022-10-18T11:01:21.562Z,4.35
2022-10-18T11:04:33.968Z,4.33
2022-10-18T11:07:49.043Z,4.32
2022-10-18T11:11:23.147Z,4.27
2022-10-18T11:14:34.746Z,4.19
2022-10-18T11:17:56.761Z,4.20
2022-10-18T11:21:14.465Z,4.17
2022-10-18T11:24:19.015Z,4.12
2022-10-18T11:27:26.386Z,4.10
2022-10-18T11:30:52.764Z,4.09
2022-10-18T11:34:15.978Z,4.11
2022-10-18T11:37:38.959Z,4.10
2022-10-18T11:41:06.611Z,4.04
2022-10-18T11:44:35.172Z,4.07
2022-10-18T11:47:53.701Z,3.88
2022-10-18T11:51:10.036Z,3.69
2022-10-18T11:54:29.442Z,3.57
2022-10-18T11:57:52.697Z,3.53
2022-10-18T12:01:28.703Z,3.56
2022-10-18T12:04:53.126Z,3.44
2022-10-18T12:08:12.677Z,3.41
2022-10-18T12:11:26.721Z,3.32
2022-10-18T12:14:59.225Z,3.31
2022-10-18T12:18:15.928Z,3.25
2022-10-18T12:21:25.896Z,3.25
2022-10-18T12:24:34.535Z,3.26
2022-10-18T12:28:03.570Z,3.34
2022-10-18T12:31:31.003Z,3.47
2022-10-18T12:34:56.366Z,3.52
2022-10-18T12:38:34.640Z,3.39
2022-10-18T12:41:42.054Z,3.24
2022-10-18T12:44:50.397Z,3.18
2022-10-18T12:48:23.612Z,3.07
2022-10-18T12:51:31.138Z,3.06
2022-10-18T12:54:41.399Z,2.97
2022-10-18T12:58:07.586Z,2.81
2022-10-18T13:01:16.146Z,2.79
2022-10-18T13:04:36.693Z,2.83
2022-10-18T13:07:45.312Z,2.71
2022-10-18T13:11:10.077Z,2.64
2022-10-18T13:14:48.311Z,2.59
2022-10-18T13:18:27.660Z,2.54
2022-10-18T13:21:45.698Z,2.52
2022-10-18T13:25:06.077Z,2.58
2022-10-18T13:28:19.090Z,2.60
2022-10-18T13:31:39.725Z,2.57
2022-10-18T13:34:44.066Z,2.48
2022-10-18T13:38:00.259Z,2.44
2022-10-18T13:41:09.038Z,2.39
2022-10-18T13:44:34.945Z,2.31
2022-10-18T13:47:39.707Z,2.24
2022-10-18T13:50:45.312Z,2.26
2022-10-18T13:54:39.608Z,2.28
2022-10-18T13:58:23.817Z,2.25
2022-10-18T14:02:30.687Z,2.22
2022-10-18T14:05:54.583Z,2.16
2022-10-18T14:09:40.196Z,2.16
2022-10-18T14:12:55.363Z,2.16
2022-10-18T14:16:26.794Z,2.17
2022-10-18T14:19:47.313Z,2.12
2022-10-18T14:23:14.806Z,2.08
2022-10-18T14:26:22.128Z,2.04
2022-10-18T14:29:26.895Z,1.99
2022-10-18T14:32:37.042Z,1.97
2022-10-18T14:35:47.829Z,1.97
2022-10-18T14:39:04.669Z,2.00
2022-10-18T14:42:22.811Z,1.94
2022-10-18T14:45:29.577Z,1.79
2022-10-18T14:48:34.411Z,1.64
2022-10-18T14:51:41.707Z,1.72
2022-10-18T14:54:46.445Z,1.60
2022-10-18T14:57:51.794Z,1.53
2022-10-18T15:00:56.867Z,1.36
2022-10-18T15:04:06.852Z,1.30
2022-10-18T15:07:17.649Z,1.43
2022-10-18T15:10:34.352Z,1.49
2022-10-18T15:13:45.444Z,1.56
2022-10-18T15:16:52.056Z,1.56
2022-10-18T15:20:47.446Z,1.60
2022-10-18T15:27:20.197Z,1.66
2022-10-18T15:30:30.373Z,1.65
2022-10-18T15:33:37.227Z,1.55
2022-10-18T15:36:41.047Z,1.47
2022-10-18T15:39:44.421Z,1.47
2022-10-18T15:42:47.493Z,1.44
2022-10-18T15:45:53.436Z,1.40
2022-10-18T15:49:19.948Z,1.47
2022-10-18T15:52:42.223Z,1.49
2022-10-18T15:55:48.932Z,1.32
2022-10-18T15:58:52.507Z,1.09
2022-10-18T16:01:56.166Z,1.09
2022-10-18T16:05:03.843Z,1.08
2022-10-18T16:08:07.444Z,1.01
2022-10-18T16:11:19.363Z,1.00
2022-10-18T16:14:23.348Z,1.02
2022-10-18T16:17:27.349Z,0.85
2022-10-18T16:20:31.373Z,0.92
2022-10-18T16:23:35.037Z,0.95
2022-10-18T16:26:39.185Z,0.86
2022-10-18T16:29:42.512Z,0.79
2022-10-18T16:32:47.310Z,0.82
2022-10-18T16:35:51.070Z,0.84
2022-10-18T16:38:56.107Z,0.87
2022-10-18T16:41:59.762Z,0.83
2022-10-18T16:45:03.125Z,0.78
2022-10-18T16:48:06.794Z,0.71
2022-10-18T16:51:11.682Z,0.71
2022-10-18T16:54:15.361Z,0.64
2022-10-18T16:57:18.220Z,0.61
2022-10-18T17:00:23.656Z,0.61
2022-10-18T17:03:27.942Z,0.54
2022-10-18T17:06:33.483Z,0.44
2022-10-18T17:09:37.573Z,0.32
2022-10-18T17:12:41.279Z,0.23
2022-10-18T17:15:44.593Z,0.32
2022-10-18T17:18:47.598Z,0.30
2022-10-18T17:21:50.825Z,0.20
2022-10-18T17:24:53.737Z,0.20
2022-10-18T17:27:57.817Z,0.23
2022-10-18T17:31:00.897Z,0.22
2022-10-18T17:34:05.595Z,0.14
2022-10-18T17:37:09.654Z,0.11
2022-10-18T17:40:14.268Z,0.08
2022-10-18T17:43:17.923Z,0.05
2022-10-18T17:46:22.006Z,0.02
2022-10-18T17:49:25.086Z,-0.07
2022-10-18T17:52:28.328Z,-0.06
2022-10-18T17:55:31.275Z,-0.05
2022-10-18T17:58:36.155Z,0.01
2022-10-18T18:01:39.692Z,0.10
2022-10-18T18:04:44.059Z,0.23
2022-10-18T18:07:48.200Z,0.22
2022-10-18T18:10:56.277Z,0.15
2022-10-18T18:13:59.925Z,0.10
2022-10-18T18:17:03.970Z,0.06
2022-10-18T18:20:08.322Z,-0.03
2022-10-18T18:23:12.263Z,-0.14
2022-10-18T18:26:15.985Z,-0.18
2022-10-18T18:29:19.346Z,-0.24
2022-10-18T18:32:22.584Z,-0.30
2022-10-18T18:35:25.854Z,-0.36
2022-10-18T18:38:28.753Z,-0.29
2022-10-18T18:41:33.430Z,-0.24
2022-10-18T18:44:37.337Z,-0.23
2022-10-18T18:47:40.948Z,-0.25
2022-10-18T18:50:50.474Z,-0.24
2022-10-18T18:53:54.308Z,-0.17
2022-10-18T18:56:58.826Z,-0.20
2022-10-18T19:00:02.474Z,-0.13
2022-10-18T19:03:06.429Z,-0.11
2022-10-18T19:06:14.265Z,-0.05
2022-10-18T19:09:23.482Z,0.06
2022-10-18T19:12:26.764Z,0.17
2022-10-18T19:15:31.119Z,0.24
2022-10-18T19:18:35.908Z,0.33
2022-10-18T19:21:48.461Z,0.43
2022-10-18T19:24:52.084Z,0.47
2022-10-18T19:27:55.339Z,0.58
2022-10-18T19:30:59.517Z,0.68
2022-10-18T19:34:08.735Z,0.77
2022-10-18T19:37:13.456Z,0.83
2022-10-18T19:40:16.811Z,0.93
2022-10-18T19:43:19.672Z,1.00
2022-10-18T19:46:22.728Z,1.03
2022-10-18T19:49:26.361Z,1.02
2022-10-18T19:52:29.820Z,1.08
2022-10-18T19:55:35.523Z,1.05
2022-10-18T19:58:38.372Z,0.84
2022-10-18T20:01:41.435Z,0.66
2022-10-18T20:04:45.180Z,0.52
2022-10-18T20:07:48.189Z,0.45
2022-10-18T20:10:51.588Z,0.54
2022-10-18T20:13:56.660Z,0.65
2022-10-18T20:17:00.394Z,0.73
2022-10-18T20:20:04.516Z,0.83
2022-10-18T20:23:08.145Z,0.85
2022-10-18T20:26:18.178Z,0.88
2022-10-18T20:29:25.867Z,0.93
2022-10-18T20:32:29.970Z,0.95
2022-10-18T20:35:33.138Z,1.01
2022-10-18T20:38:38.526Z,1.10
2022-10-18T20:41:42.277Z,1.26
2022-10-18T20:44:47.863Z,1.32
2022-10-18T20:47:51.433Z,1.34
2022-10-18T20:50:55.443Z,1.27
2022-10-18T20:54:00.448Z,1.32
2022-10-18T20:57:04.835Z,1.36
2022-10-18T21:00:11.941Z,1.32
2022-10-18T21:03:15.860Z,1.40
2022-10-18T21:06:22.651Z,1.43
2022-10-18T21:09:26.209Z,1.41
2022-10-18T21:12:30.037Z,1.42
2022-10-18T21:15:34.032Z,1.39
2022-10-18T21:18:40.872Z,1.41
2022-10-18T21:21:46.728Z,1.38
2022-10-18T21:24:51.358Z,1.33
2022-10-18T21:27:55.658Z,1.32
2022-10-18T21:31:13.192Z,1.38
2022-10-18T21:34:18.491Z,1.35
2022-10-18T21:37:22.215Z,1.38
2022-10-18T21:40:25.589Z,1.35
2022-10-18T21:43:28.781Z,1.33
2022-10-18T21:46:32.774Z,1.26
2022-10-18T21:49:36.402Z,1.30
2022-10-18T21:52:40.323Z,1.32
2022-10-18T21:55:43.851Z,1.29
2022-10-18T21:58:47.326Z,1.28
2022-10-18T22:01:52.791Z,1.29
2022-10-18T22:04:55.821Z,1.30
2022-10-18T22:07:59.528Z,1.29
2022-10-18T22:11:03.915Z,1.23
2022-10-18T22:14:07.572Z,1.23
2022-10-18T22:17:11.475Z,1.23
2022-10-18T22:20:15.195Z,1.24
2022-10-18T22:23:18.447Z,1.25
2022-10-18T22:26:22.726Z,1.22
2022-10-18T22:29:26.375Z,1.19
2022-10-18T22:32:29.314Z,1.21
2022-10-18T22:35:35.117Z,1.24
2022-10-18T22:38:39.089Z,1.24
2022-10-18T22:41:43.906Z,1.25
2022-10-18T22:44:47.483Z,1.28
2022-10-18T22:47:51.076Z,1.35
2022-10-18T22:50:54.749Z,1.36
2022-10-18T22:53:58.471Z,1.45
2022-10-18T22:57:02.129Z,1.43
2022-10-18T23:00:06.774Z,1.43
2022-10-18T23:03:10.228Z,1.39
2022-10-18T23:06:22.818Z,1.44
2022-10-18T23:09:26.641Z,1.46
2022-10-18T23:12:29.641Z,1.50
2022-10-18T23:15:33.673Z,1.51
2022-10-18T23:18:36.953Z,1.54
2022-10-18T23:21:39.926Z,1.56
2022-10-18T23:24:43.178Z,1.63
2022-10-18T23:27:46.669Z,1.70
2022-10-18T23:30:50.623Z,1.78
2022-10-18T23:33:56.758Z,1.85
2022-10-18T23:37:00.320Z,1.88
2022-10-18T23:40:04.092Z,1.93
2022-10-18T23:43:07.637Z,1.98
2022-10-18T23:46:12.410Z,2.04
2022-10-18T23:49:15.775Z,2.06
2022-10-18T23:52:18.950Z,2.07
2022-10-18T23:55:22.585Z,2.17
2022-10-18T23:58:26.007Z,2.23
